sensor_id;sensor_type;location;lat;lon;timestamp;pressure;altitude;pressure_sealevel;temperature;humidity
26192;BME280;13935;55.672;37.764;2024-03-02T00:00:03;101356.72;;;4.74;100.00
26192;BME280;13935;55.672;37.764;2024-03-02T00:01:15;101356.56;;;4.35;100.00
26192;BME280;13935;55.672;37.764;2024-03-02T00:02:47;101359.53;;;4.25;100.00
26192;BME280;13935;55.672;37.764;2024-03-02T00:03:55;101359.19;;;4.40;100.00
26192;BME280;13935;55.672;37.764;2024-03-02T00:05:31;101359.00;;;4.37;100.00
26192;BME280;13935;55.672;37.764;2024-03-02T00:09:29;101357.75;;;4.08;100.00
26192;BME280;13935;55.672;37.764;2024-03-02T00:10:43;101363.22;;;4.08;100.00
26192;BME280;13935;55.672;37.764;2024-03-02T00:12:01;101361.41;;;4.03;100.00
26192;BME280;13935;55.672;37.764;2024-03-02T00:13:09;101366.06;;;4.03;100.00
26192;BME280;13935;55.672;37.764;2024-03-02T00:14:19;101360.19;;;3.96;100.00
26192;BME280;13935;55.672;37.764;2024-03-02T00:15:47;101352.31;;;3.94;100.00
26192;BME280;13935;55.672;37.764;2024-03-02T00:16:58;101349.25;;;3.96;100.00
26192;BME280;13935;55.672;37.764;2024-03-02T00:18:02;101350.38;;;3.95;100.00
26192;BME280;13935;55.672;37.764;2024-03-02T00:19:16;101347.44;;;4.05;100.00
26192;BME280;13935;55.672;37.764;2024-03-02T00:20:24;101348.63;;;4.12;100.00
26192;BME280;13935;55.672;37.764;2024-03-02T00:21:30;101353.59;;;4.10;100.00
26192;BME280;13935;55.672;37.764;2024-03-02T00:22:35;101349.66;;;4.03;100.00
26192;BME280;13935;55.672;37.764;2024-03-02T00:23:39;101352.47;;;4.11;100.00
26192;BME280;13935;55.672;37.764;2024-03-02T00:24:46;101344.81;;;4.00;100.00
26192;BME280;13935;55.672;37.764;2024-03-02T00:25:57;101354.53;;;3.92;100.00
26192;BME280;13935;55.672;37.764;2024-03-02T00:27:10;101349.88;;;3.93;100.00
26192;BME280;13935;55.672;37.764;2024-03-02T00:31:18;101349.94;;;4.15;100.00
26192;BME280;13935;55.672;37.764;2024-03-02T00:34:07;101344.06;;;4.43;100.00
26192;BME280;13935;55.672;37.764;2024-03-02T00:35:18;101341.31;;;4.21;100.00
26192;BME280;13935;55.672;37.764;2024-03-02T00:36:24;101346.59;;;4.18;100.00
26192;BME280;13935;55.672;37.764;2024-03-02T00:37:33;101339.25;;;4.26;100.00
26192;BME280;13935;55.672;37.764;2024-03-02T00:38:53;101338.25;;;4.22;100.00
26192;BME280;13935;55.672;37.764;2024-03-02T00:39:59;101341.66;;;4.28;100.00
26192;BME280;13935;55.672;37.764;2024-03-02T00:42:46;101341.84;;;4.31;100.00
26192;BME280;13935;55.672;37.764;2024-03-02T00:44:01;101339.88;;;4.23;100.00
26192;BME280;13935;55.672;37.764;2024-03-02T00:45:08;101343.34;;;4.16;100.00
26192;BME280;13935;55.672;37.764;2024-03-02T00:46:27;101345.16;;;4.20;100.00
26192;BME280;13935;55.672;37.764;2024-03-02T00:47:38;101339.09;;;4.10;100.00
26192;BME280;13935;55.672;37.764;2024-03-02T00:48:52;101344.72;;;4.26;100.00
26192;BME280;13935;55.672;37.764;2024-03-02T00:50:02;101354.47;;;4.19;100.00
26192;BME280;13935;55.672;37.764;2024-03-02T00:51:33;101351.03;;;4.27;100.00
26192;BME280;13935;55.672;37.764;2024-03-02T00:52:43;101345.81;;;4.04;100.00
26192;BME280;13935;55.672;37.764;2024-03-02T00:53:53;101351.63;;;4.24;100.00
26192;BME280;13935;55.672;37.764;2024-03-02T00:55:02;101348.03;;;4.15;100.00
26192;BME280;13935;55.672;37.764;2024-03-02T00:56:11;101354.41;;;4.11;100.00
26192;BME280;13935;55.672;37.764;2024-03-02T00:57:21;101355.91;;;4.17;100.00
26192;BME280;13935;55.672;37.764;2024-03-02T00:58:38;101353.19;;;4.17;100.00
26192;BME280;13935;55.672;37.764;2024-03-02T00:59:44;101352.91;;;4.05;100.00
26192;BME280;13935;55.672;37.764;2024-03-02T01:01:27;101341.13;;;4.18;100.00
26192;BME280;13935;55.672;37.764;2024-03-02T01:02:36;101354.22;;;4.42;100.00
26192;BME280;13935;55.672;37.764;2024-03-02T01:03:53;101353.50;;;4.02;100.00
26192;BME280;13935;55.672;37.764;2024-03-02T01:05:02;101351.22;;;4.17;100.00
26192;BME280;13935;55.672;37.764;2024-03-02T01:06:26;101352.59;;;4.06;100.00
26192;BME280;13935;55.672;37.764;2024-03-02T01:07:40;101359.69;;;3.94;100.00
26192;BME280;13935;55.672;37.764;2024-03-02T01:08:48;101358.78;;;4.12;100.00
26192;BME280;13935;55.672;37.764;2024-03-02T01:10:02;101362.19;;;4.17;100.00
26192;BME280;13935;55.672;37.764;2024-03-02T01:11:10;101353.28;;;4.12;100.00
26192;BME280;13935;55.672;37.764;2024-03-02T01:12:23;101360.34;;;4.26;100.00
26192;BME280;13935;55.672;37.764;2024-03-02T01:13:26;101354.75;;;4.31;100.00
26192;BME280;13935;55.672;37.764;2024-03-02T01:14:32;101353.97;;;4.30;100.00
26192;BME280;13935;55.672;37.764;2024-03-02T01:15:57;101352.28;;;4.43;100.00
26192;BME280;13935;55.672;37.764;2024-03-02T01:17:17;101354.88;;;4.26;100.00
26192;BME280;13935;55.672;37.764;2024-03-02T01:18:33;101350.84;;;4.23;100.00
26192;BME280;13935;55.672;37.764;2024-03-02T01:19:44;101360.16;;;4.22;100.00
26192;BME280;13935;55.672;37.764;2024-03-02T01:21:18;101364.84;;;4.09;100.00
26192;BME280;13935;55.672;37.764;2024-03-02T01:22:35;101371.75;;;4.06;100.00
26192;BME280;13935;55.672;37.764;2024-03-02T01:23:46;101364.66;;;4.05;100.00
26192;BME280;13935;55.672;37.764;2024-03-02T01:25:05;101363.41;;;4.11;100.00
26192;BME280;13935;55.672;37.764;2024-03-02T01:26:19;101358.25;;;4.10;100.00
26192;BME280;13935;55.672;37.764;2024-03-02T01:28:09;101363.50;;;4.20;100.00
26192;BME280;13935;55.672;37.764;2024-03-02T01:29:28;101365.63;;;4.22;100.00
26192;BME280;13935;55.672;37.764;2024-03-02T01:30:40;101362.19;;;4.17;100.00
26192;BME280;13935;55.672;37.764;2024-03-02T01:33:39;101363.84;;;4.05;100.00
26192;BME280;13935;55.672;37.764;2024-03-02T01:40:25;101367.25;;;4.23;100.00
26192;BME280;13935;55.672;37.764;2024-03-02T01:42:10;101367.28;;;4.45;100.00
26192;BME280;13935;55.672;37.764;2024-03-02T01:43:26;101364.16;;;4.38;100.00
26192;BME280;13935;55.672;37.764;2024-03-02T01:45:07;101364.22;;;4.47;100.00
26192;BME280;13935;55.672;37.764;2024-03-02T01:46:27;101363.94;;;4.48;100.00
26192;BME280;13935;55.672;37.764;2024-03-02T01:47:48;101360.09;;;4.49;100.00
26192;BME280;13935;55.672;37.764;2024-03-02T01:51:50;101361.28;;;4.22;100.00
26192;BME280;13935;55.672;37.764;2024-03-02T01:53:01;101367.34;;;4.19;100.00
26192;BME280;13935;55.672;37.764;2024-03-02T01:54:16;101364.53;;;4.23;100.00
26192;BME280;13935;55.672;37.764;2024-03-02T01:55:21;101367.28;;;4.45;100.00
26192;BME280;13935;55.672;37.764;2024-03-02T01:56:36;101369.88;;;4.28;100.00
26192;BME280;13935;55.672;37.764;2024-03-02T01:57:50;101366.97;;;4.12;100.00
26192;BME280;13935;55.672;37.764;2024-03-02T01:59:05;101374.66;;;4.23;100.00
26192;BME280;13935;55.672;37.764;2024-03-02T02:00:10;101373.47;;;4.16;100.00
26192;BME280;13935;55.672;37.764;2024-03-02T02:01:17;101370.72;;;4.16;100.00
26192;BME280;13935;55.672;37.764;2024-03-02T02:02:24;101364.94;;;4.17;100.00
26192;BME280;13935;55.672;37.764;2024-03-02T02:03:36;101371.50;;;4.29;100.00
26192;BME280;13935;55.672;37.764;2024-03-02T02:04:44;101372.75;;;4.23;100.00
26192;BME280;13935;55.672;37.764;2024-03-02T02:05:52;101365.91;;;4.34;100.00
26192;BME280;13935;55.672;37.764;2024-03-02T02:07:00;101374.50;;;4.41;100.00
26192;BME280;13935;55.672;37.764;2024-03-02T02:08:24;101362.53;;;4.37;100.00
26192;BME280;13935;55.672;37.764;2024-03-02T02:09:36;101368.47;;;4.53;100.00
26192;BME280;13935;55.672;37.764;2024-03-02T02:10:46;101376.53;;;4.49;100.00
26192;BME280;13935;55.672;37.764;2024-03-02T02:11:54;101374.25;;;4.51;100.00
26192;BME280;13935;55.672;37.764;2024-03-02T02:13:07;101374.22;;;4.65;100.00
26192;BME280;13935;55.672;37.764;2024-03-02T02:14:15;101375.03;;;4.65;100.00
26192;BME280;13935;55.672;37.764;2024-03-02T02:16:49;101375.63;;;4.62;100.00
26192;BME280;13935;55.672;37.764;2024-03-02T02:17:59;101380.31;;;4.62;100.00
26192;BME280;13935;55.672;37.764;2024-03-02T02:19:26;101378.88;;;4.64;100.00
26192;BME280;13935;55.672;37.764;2024-03-02T02:20:38;101371.66;;;4.68;100.00
26192;BME280;13935;55.672;37.764;2024-03-02T02:21:50;101371.38;;;4.70;100.00
26192;BME280;13935;55.672;37.764;2024-03-02T02:23:04;101377.25;;;4.63;100.00
26192;BME280;13935;55.672;37.764;2024-03-02T02:24:25;101371.53;;;4.51;100.00
26192;BME280;13935;55.672;37.764;2024-03-02T02:25:34;101379.63;;;4.56;100.00
26192;BME280;13935;55.672;37.764;2024-03-02T02:26:45;101380.84;;;4.50;100.00
26192;BME280;13935;55.672;37.764;2024-03-02T02:27:48;101376.88;;;4.56;100.00
26192;BME280;13935;55.672;37.764;2024-03-02T02:29:02;101381.03;;;4.32;100.00
26192;BME280;13935;55.672;37.764;2024-03-02T02:30:06;101382.47;;;4.51;100.00
26192;BME280;13935;55.672;37.764;2024-03-02T02:31:18;101374.06;;;4.48;100.00
26192;BME280;13935;55.672;37.764;2024-03-02T02:32:24;101390.09;;;4.54;100.00
26192;BME280;13935;55.672;37.764;2024-03-02T02:33:42;101377.63;;;4.48;100.00
26192;BME280;13935;55.672;37.764;2024-03-02T02:34:53;101380.56;;;4.52;100.00
26192;BME280;13935;55.672;37.764;2024-03-02T02:36:03;101391.56;;;4.38;100.00
26192;BME280;13935;55.672;37.764;2024-03-02T02:37:14;101383.50;;;4.55;100.00
26192;BME280;13935;55.672;37.764;2024-03-02T02:38:25;101390.31;;;4.44;100.00
26192;BME280;13935;55.672;37.764;2024-03-02T02:39:39;101391.13;;;4.45;100.00
26192;BME280;13935;55.672;37.764;2024-03-02T02:40:44;101390.69;;;4.51;100.00
26192;BME280;13935;55.672;37.764;2024-03-02T02:42:06;101385.66;;;4.45;100.00
26192;BME280;13935;55.672;37.764;2024-03-02T02:43:15;101389.91;;;4.51;100.00
26192;BME280;13935;55.672;37.764;2024-03-02T02:44:21;101385.84;;;4.48;100.00
26192;BME280;13935;55.672;37.764;2024-03-02T02:45:33;101385.59;;;4.58;100.00
26192;BME280;13935;55.672;37.764;2024-03-02T02:46:43;101390.09;;;4.54;100.00
26192;BME280;13935;55.672;37.764;2024-03-02T02:47:56;101390.13;;;4.41;100.00
26192;BME280;13935;55.672;37.764;2024-03-02T02:49:02;101386.06;;;4.38;100.00
26192;BME280;13935;55.672;37.764;2024-03-02T02:50:11;101385.47;;;4.28;100.00
26192;BME280;13935;55.672;37.764;2024-03-02T02:51:19;101386.69;;;4.35;100.00
26192;BME280;13935;55.672;37.764;2024-03-02T02:52:31;101389.06;;;4.28;100.00
26192;BME280;13935;55.672;37.764;2024-03-02T02:53:37;101386.31;;;4.28;100.00
26192;BME280;13935;55.672;37.764;2024-03-02T02:55:04;101382.75;;;4.28;100.00
26192;BME280;13935;55.672;37.764;2024-03-02T02:56:19;101382.66;;;4.20;100.00
26192;BME280;13935;55.672;37.764;2024-03-02T02:57:32;101383.84;;;4.40;100.00
26192;BME280;13935;55.672;37.764;2024-03-02T02:58:40;101379.66;;;4.43;100.00
26192;BME280;13935;55.672;37.764;2024-03-02T02:59:53;101381.38;;;4.52;100.00
26192;BME280;13935;55.672;37.764;2024-03-02T03:00:59;101381.88;;;4.54;100.00
26192;BME280;13935;55.672;37.764;2024-03-02T03:02:17;101378.88;;;4.64;100.00
26192;BME280;13935;55.672;37.764;2024-03-02T03:03:27;101380.13;;;4.58;100.00
26192;BME280;13935;55.672;37.764;2024-03-02T03:04:33;101377.03;;;4.73;100.00
26192;BME280;13935;55.672;37.764;2024-03-02T03:05:48;101380.97;;;4.45;100.00
26192;BME280;13935;55.672;37.764;2024-03-02T03:06:53;101388.81;;;4.38;100.00
26192;BME280;13935;55.672;37.764;2024-03-02T03:08:07;101384.84;;;4.44;100.00
26192;BME280;13935;55.672;37.764;2024-03-02T03:09:15;101383.59;;;4.50;100.00
26192;BME280;13935;55.672;37.764;2024-03-02T03:10:23;101383.00;;;4.53;100.00
26192;BME280;13935;55.672;37.764;2024-03-02T03:11:37;101382.94;;;4.67;100.00
26192;BME280;13935;55.672;37.764;2024-03-02T03:12:48;101387.09;;;4.42;100.00
26192;BME280;13935;55.672;37.764;2024-03-02T03:13:52;101381.22;;;4.35;100.00
26192;BME280;13935;55.672;37.764;2024-03-02T03:14:59;101389.31;;;4.40;100.00
26192;BME280;13935;55.672;37.764;2024-03-02T03:16:04;101386.75;;;4.09;100.00
26192;BME280;13935;55.672;37.764;2024-03-02T03:17:12;101393.88;;;3.96;100.00
26192;BME280;13935;55.672;37.764;2024-03-02T03:18:15;101392.09;;;4.14;100.00
26192;BME280;13935;55.672;37.764;2024-03-02T03:19:21;101392.66;;;4.37;100.00
26192;BME280;13935;55.672;37.764;2024-03-02T03:20:31;101395.41;;;4.37;100.00
26192;BME280;13935;55.672;37.764;2024-03-02T03:25:01;101391.94;;;4.45;100.00
26192;BME280;13935;55.672;37.764;2024-03-02T03:26:09;101385.66;;;4.45;100.00
26192;BME280;13935;55.672;37.764;2024-03-02T03:27:18;101398.81;;;4.08;100.00
26192;BME280;13935;55.672;37.764;2024-03-02T03:28:23;101396.47;;;4.15;100.00
26192;BME280;13935;55.672;37.764;2024-03-02T03:29:30;101390.69;;;4.16;100.00
26192;BME280;13935;55.672;37.764;2024-03-02T03:30:44;101389.56;;;4.30;100.00
26192;BME280;13935;55.672;37.764;2024-03-02T03:31:49;101384.69;;;4.27;100.00
26192;BME280;13935;55.672;37.764;2024-03-02T03:32:57;101390.16;;;4.27;100.00
26192;BME280;13935;55.672;37.764;2024-03-02T03:34:07;101381.63;;;4.42;100.00
26192;BME280;13935;55.672;37.764;2024-03-02T03:35:17;101383.69;;;4.10;100.00
26192;BME280;13935;55.672;37.764;2024-03-02T03:36:33;101378.81;;;4.21;100.00
26192;BME280;13935;55.672;37.764;2024-03-02T03:37:43;101381.81;;;4.46;100.00
26192;BME280;13935;55.672;37.764;2024-03-02T03:38:59;101384.69;;;4.27;100.00
26192;BME280;13935;55.672;37.764;2024-03-02T03:40:17;101379.28;;;4.36;100.00
26192;BME280;13935;55.672;37.764;2024-03-02T03:41:23;101383.84;;;4.40;100.00
26192;BME280;13935;55.672;37.764;2024-03-02T03:42:29;101376.81;;;4.48;100.00
26192;BME280;13935;55.672;37.764;2024-03-02T03:43:42;101378.38;;;4.40;100.00
26192;BME280;13935;55.672;37.764;2024-03-02T03:44:56;101377.69;;;4.22;100.00
26192;BME280;13935;55.672;37.764;2024-03-02T03:46:06;101384.31;;;4.07;100.00
26192;BME280;13935;55.672;37.764;2024-03-02T03:47:17;101380.69;;;3.85;100.00
26192;BME280;13935;55.672;37.764;2024-03-02T03:48:24;101384.13;;;4.04;100.00
26192;BME280;13935;55.672;37.764;2024-03-02T03:49:42;101378.94;;;4.16;100.00
26192;BME280;13935;55.672;37.764;2024-03-02T03:50:57;101377.94;;;4.12;100.00
26192;BME280;13935;55.672;37.764;2024-03-02T03:52:05;101385.31;;;4.24;100.00
26192;BME280;13935;55.672;37.764;2024-03-02T03:53:13;101378.59;;;4.30;100.00
26192;BME280;13935;55.672;37.764;2024-03-02T03:54:19;101382.56;;;4.24;100.00
26192;BME280;13935;55.672;37.764;2024-03-02T03:55:34;101378.41;;;4.27;100.00
26192;BME280;13935;55.672;37.764;2024-03-02T03:56:44;101388.16;;;4.20;100.00
26192;BME280;13935;55.672;37.764;2024-03-02T03:58:02;101379.72;;;4.29;100.00
26192;BME280;13935;55.672;37.764;2024-03-02T04:00:42;101376.88;;;4.56;100.00
26192;BME280;13935;55.672;37.764;2024-03-02T04:03:49;101378.69;;;4.61;100.00
26192;BME280;13935;55.672;37.764;2024-03-02T04:05:03;101375.56;;;4.54;100.00
26192;BME280;13935;55.672;37.764;2024-03-02T04:06:39;101370.22;;;4.49;100.00
26192;BME280;13935;55.672;37.764;2024-03-02T04:08:00;101368.31;;;4.49;100.00
26192;BME280;13935;55.672;37.764;2024-03-02T04:09:13;101376.13;;;4.42;100.00
26192;BME280;13935;55.672;37.764;2024-03-02T04:10:30;101378.59;;;4.30;100.00
26192;BME280;13935;55.672;37.764;2024-03-02T04:11:41;101379.41;;;4.31;100.00
26192;BME280;13935;55.672;37.764;2024-03-02T04:13:33;101380.03;;;4.15;100.00
26192;BME280;13935;55.672;37.764;2024-03-02T04:15:00;101384.09;;;4.17;100.00
26192;BME280;13935;55.672;37.764;2024-03-02T04:16:13;101386.81;;;4.30;100.00
26192;BME280;13935;55.672;37.764;2024-03-02T04:17:20;101385.31;;;4.24;100.00
26192;BME280;13935;55.672;37.764;2024-03-02T04:19:04;101385.47;;;4.28;100.00
26192;BME280;13935;55.672;37.764;2024-03-02T04:20:08;101385.91;;;4.22;100.00
26192;BME280;13935;55.672;37.764;2024-03-02T04:21:23;101395.53;;;4.32;100.00
26192;BME280;13935;55.672;37.764;2024-03-02T04:22:36;101385.91;;;4.22;100.00
26192;BME280;13935;55.672;37.764;2024-03-02T04:23:50;101378.81;;;4.21;100.00
26192;BME280;13935;55.672;37.764;2024-03-02T04:24:57;101386.50;;;4.32;100.00
26192;BME280;13935;55.672;37.764;2024-03-02T04:26:18;101387.19;;;4.37;100.00
26192;BME280;13935;55.672;37.764;2024-03-02T04:27:55;101377.97;;;4.33;100.00
26192;BME280;13935;55.672;37.764;2024-03-02T04:29:04;101389.56;;;4.30;100.00
26192;BME280;13935;55.672;37.764;2024-03-02T04:30:17;101385.59;;;4.36;100.00
26192;BME280;13935;55.672;37.764;2024-03-02T04:31:20;101384.38;;;4.29;100.00
26192;BME280;13935;55.672;37.764;2024-03-02T04:32:25;101377.72;;;4.43;100.00
26192;BME280;13935;55.672;37.764;2024-03-02T04:33:33;101380.66;;;4.47;100.00
26192;BME280;13935;55.672;37.764;2024-03-02T04:34:40;101380.31;;;4.40;100.00
26192;BME280;13935;55.672;37.764;2024-03-02T04:35:46;101384.84;;;4.44;100.00
26192;BME280;13935;55.672;37.764;2024-03-02T04:36:56;101377.72;;;4.57;100.00
26192;BME280;13935;55.672;37.764;2024-03-02T04:38:03;101387.44;;;4.27;100.00
26192;BME280;13935;55.672;37.764;2024-03-02T04:39:14;101383.50;;;4.07;100.00
26192;BME280;13935;55.672;37.764;2024-03-02T04:40:18;101383.69;;;4.23;100.00
26192;BME280;13935;55.672;37.764;2024-03-02T04:41:26;101384.69;;;4.27;100.00
26192;BME280;13935;55.672;37.764;2024-03-02T04:42:31;101383.63;;;4.02;100.00
26192;BME280;13935;55.672;37.764;2024-03-02T04:43:36;101381.66;;;4.16;100.00
26192;BME280;13935;55.672;37.764;2024-03-02T04:44:43;101386.03;;;4.17;100.00
26192;BME280;13935;55.672;37.764;2024-03-02T04:45:54;101392.94;;;4.14;100.00
26192;BME280;13935;55.672;37.764;2024-03-02T04:47:04;101389.16;;;4.23;100.00
26192;BME280;13935;55.672;37.764;2024-03-02T04:48:41;101392.59;;;4.29;100.00
26192;BME280;13935;55.672;37.764;2024-03-02T04:50:12;101387.66;;;4.18;100.00
26192;BME280;13935;55.672;37.764;2024-03-02T04:51:27;101385.41;;;4.20;100.00
26192;BME280;13935;55.672;37.764;2024-03-02T04:52:38;101386.31;;;4.28;100.00
26192;BME280;13935;55.672;37.764;2024-03-02T04:54:18;101395.50;;;4.46;100.00
26192;BME280;13935;55.672;37.764;2024-03-02T04:55:28;101394.47;;;4.55;100.00
26192;BME280;13935;55.672;37.764;2024-03-02T04:56:36;101394.16;;;4.43;100.00
26192;BME280;13935;55.672;37.764;2024-03-02T04:58:04;101390.47;;;4.61;100.00
26192;BME280;13935;55.672;37.764;2024-03-02T04:59:16;101390.22;;;4.49;100.00
26192;BME280;13935;55.672;37.764;2024-03-02T05:00:33;101388.16;;;4.20;100.00
26192;BME280;13935;55.672;37.764;2024-03-02T05:01:41;101390.16;;;4.27;100.00
26192;BME280;13935;55.672;37.764;2024-03-02T05:02:56;101392.72;;;4.24;100.00
26192;BME280;13935;55.672;37.764;2024-03-02T05:04:17;101386.59;;;4.40;100.00
26192;BME280;13935;55.672;37.764;2024-03-02T05:05:32;101380.00;;;4.41;100.00
26192;BME280;13935;55.672;37.764;2024-03-02T05:06:39;101382.88;;;4.23;100.00
26192;BME280;13935;55.672;37.764;2024-03-02T05:07:54;101375.78;;;4.09;100.00
26192;BME280;13935;55.672;37.764;2024-03-02T05:09:03;101379.84;;;4.24;100.00
26192;BME280;13935;55.672;37.764;2024-03-02T05:10:08;101374.00;;;4.39;100.00
26192;BME280;13935;55.672;37.764;2024-03-02T05:11:21;101376.69;;;4.53;100.00
26192;BME280;13935;55.672;37.764;2024-03-02T05:12:43;101378.13;;;4.50;100.00
26192;BME280;13935;55.672;37.764;2024-03-02T05:13:47;101371.78;;;4.63;100.00
26192;BME280;13935;55.672;37.764;2024-03-02T05:14:54;101380.66;;;4.47;100.00
26192;BME280;13935;55.672;37.764;2024-03-02T05:16:03;101387.56;;;4.44;100.00
26192;BME280;13935;55.672;37.764;2024-03-02T05:17:16;101379.44;;;4.53;100.00
26192;BME280;13935;55.672;37.764;2024-03-02T05:18:48;101381.19;;;4.49;100.00
26192;BME280;13935;55.672;37.764;2024-03-02T05:19:52;101385.66;;;4.45;100.00
26192;BME280;13935;55.672;37.764;2024-03-02T05:21:12;101393.75;;;4.50;100.00
26192;BME280;13935;55.672;37.764;2024-03-02T05:22:19;101386.69;;;4.35;100.00
26192;BME280;13935;55.672;37.764;2024-03-02T05:23:40;101383.41;;;4.47;100.00
26192;BME280;13935;55.672;37.764;2024-03-02T05:25:02;101386.06;;;4.52;100.00
26192;BME280;13935;55.672;37.764;2024-03-02T05:26:43;101390.63;;;4.43;100.00
26192;BME280;13935;55.672;37.764;2024-03-02T05:29:32;101383.97;;;4.57;100.00
26192;BME280;13935;55.672;37.764;2024-03-02T05:30:49;101388.22;;;4.63;100.00
26192;BME280;13935;55.672;37.764;2024-03-02T05:32:04;101385.72;;;4.75;100.00
26192;BME280;13935;55.672;37.764;2024-03-02T05:33:32;101391.84;;;4.72;100.00
26192;BME280;13935;55.672;37.764;2024-03-02T05:34:45;101394.72;;;4.67;100.00
26192;BME280;13935;55.672;37.764;2024-03-02T05:36:04;101392.47;;;4.69;100.00
26192;BME280;13935;55.672;37.764;2024-03-02T05:37:18;101385.13;;;4.78;100.00
26192;BME280;13935;55.672;37.764;2024-03-02T05:38:26;101390.38;;;4.53;100.00
26192;BME280;13935;55.672;37.764;2024-03-02T05:39:31;101386.00;;;4.65;100.00
26192;BME280;13935;55.672;37.764;2024-03-02T05:40:44;101393.03;;;4.58;100.00
26192;BME280;13935;55.672;37.764;2024-03-02T05:42:16;101392.72;;;4.59;100.00
26192;BME280;13935;55.672;37.764;2024-03-02T05:43:27;101391.47;;;4.65;100.00
26192;BME280;13935;55.672;37.764;2024-03-02T05:44:43;101390.84;;;4.68;100.00
26192;BME280;13935;55.672;37.764;2024-03-02T05:45:56;101388.78;;;4.74;100.00
26192;BME280;13935;55.672;37.764;2024-03-02T05:47:01;101396.69;;;4.75;100.00
26192;BME280;13935;55.672;37.764;2024-03-02T05:48:39;101400.28;;;4.62;100.00
26192;BME280;13935;55.672;37.764;2024-03-02T05:50:02;101406.53;;;4.54;100.00
26192;BME280;13935;55.672;37.764;2024-03-02T05:51:33;101396.19;;;4.51;100.00
26192;BME280;13935;55.672;37.764;2024-03-02T05:53:54;101390.69;;;4.51;100.00
26192;BME280;13935;55.672;37.764;2024-03-02T05:55:13;101400.88;;;4.37;100.00
26192;BME280;13935;55.672;37.764;2024-03-02T05:56:24;101390.47;;;4.61;100.00
26192;BME280;13935;55.672;37.764;2024-03-02T05:57:43;101393.31;;;4.56;100.00
26192;BME280;13935;55.672;37.764;2024-03-02T05:59:15;101394.72;;;4.67;100.00
26192;BME280;13935;55.672;37.764;2024-03-02T06:00:34;101404.44;;;4.73;100.00
26192;BME280;13935;55.672;37.764;2024-03-02T06:01:47;101401.94;;;4.85;100.00
26192;BME280;13935;55.672;37.764;2024-03-02T06:02:55;101401.31;;;4.66;100.00
26192;BME280;13935;55.672;37.764;2024-03-02T06:03:59;101394.47;;;4.77;100.00
26192;BME280;13935;55.672;37.764;2024-03-02T06:05:03;101398.59;;;4.66;100.00
26192;BME280;13935;55.672;37.764;2024-03-02T06:06:06;101398.72;;;4.83;100.00
26192;BME280;13935;55.672;37.764;2024-03-02T06:07:13;101396.06;;;5.00;100.00
26192;BME280;13935;55.672;37.764;2024-03-02T06:08:18;101391.75;;;4.99;100.00
26192;BME280;13935;55.672;37.764;2024-03-02T06:09:20;101403.28;;;4.52;100.00
26192;BME280;13935;55.672;37.764;2024-03-02T06:10:30;101403.00;;;4.76;100.00
26192;BME280;13935;55.672;37.764;2024-03-02T06:11:36;101393.09;;;4.66;100.00
26192;BME280;13935;55.672;37.764;2024-03-02T06:12:39;101395.97;;;4.83;100.00
26192;BME280;13935;55.672;37.764;2024-03-02T06:13:43;101401.81;;;4.90;100.00
26192;BME280;13935;55.672;37.764;2024-03-02T06:14:49;101400.53;;;4.88;100.00
26192;BME280;13935;55.672;37.764;2024-03-02T06:16:12;101402.00;;;4.93;100.00
26192;BME280;13935;55.672;37.764;2024-03-02T06:17:28;101402.34;;;4.92;100.00
26192;BME280;13935;55.672;37.764;2024-03-02T06:19:02;101407.25;;;4.82;100.00
26192;BME280;13935;55.672;37.764;2024-03-02T06:20:08;101398.44;;;4.71;100.00
26192;BME280;13935;55.672;37.764;2024-03-02T06:21:16;101400.03;;;5.07;100.00
26192;BME280;13935;55.672;37.764;2024-03-02T06:22:24;101400.31;;;4.84;100.00
26192;BME280;13935;55.672;37.764;2024-03-02T06:23:45;101398.72;;;4.83;100.00
26192;BME280;13935;55.672;37.764;2024-03-02T06:24:59;101405.56;;;4.94;100.00
26192;BME280;13935;55.672;37.764;2024-03-02T06:26:31;101401.19;;;4.93;100.00
26192;BME280;13935;55.672;37.764;2024-03-02T06:27:34;101398.31;;;4.76;100.00
26192;BME280;13935;55.672;37.764;2024-03-02T06:28:39;101399.88;;;4.91;100.00
26192;BME280;13935;55.672;37.764;2024-03-02T06:29:54;101408.81;;;4.96;100.00
26192;BME280;13935;55.672;37.764;2024-03-02T06:31:01;101411.03;;;4.94;100.00
26192;BME280;13935;55.672;37.764;2024-03-02T06:32:08;101407.66;;;4.75;100.00
26192;BME280;13935;55.672;37.764;2024-03-02T06:33:14;101411.28;;;4.84;100.00
26192;BME280;13935;55.672;37.764;2024-03-02T06:34:26;101410.31;;;4.80;100.00
26192;BME280;13935;55.672;37.764;2024-03-02T06:35:32;101411.91;;;4.81;100.00
26192;BME280;13935;55.672;37.764;2024-03-02T06:36:44;101399.59;;;4.92;100.00
26192;BME280;13935;55.672;37.764;2024-03-02T06:37:51;101410.16;;;5.07;100.00
26192;BME280;13935;55.672;37.764;2024-03-02T06:38:59;101403.78;;;5.20;100.00
26192;BME280;13935;55.672;37.764;2024-03-02T06:40:06;101398.81;;;5.00;100.00
26192;BME280;13935;55.672;37.764;2024-03-02T06:41:10;101401.31;;;4.88;100.00
26192;BME280;13935;55.672;37.764;2024-03-02T06:42:17;101405.22;;;5.17;100.00
26192;BME280;13935;55.672;37.764;2024-03-02T06:43:46;101408.66;;;5.23;100.00
26192;BME280;13935;55.672;37.764;2024-03-02T06:44:56;101406.44;;;5.33;100.00
26192;BME280;13935;55.672;37.764;2024-03-02T06:45:58;101397.66;;;4.93;100.00
26192;BME280;13935;55.672;37.764;2024-03-02T06:47:02;101402.44;;;4.87;100.00